CPX954 Details

Departure: Patrick Air Force Base (KCOF)
Arrival: Miami International Airport (KMIA)
Route: MLB BLUFI4
Notes: EMPTY | NON-REVENUE REPOSITIONING LEG | VFR DEPARTURE RCMD IF WX PERMITS


Current Weather Information
KCOF 260956Z AUTO 30009KT 10SM BKN085 19/19 A2999 RMK AO2 SLP160 T01930193 $
KMIA 260953Z 29003KT 10SM FEW020 21/17 A3000 RMK AO2 SLP160 T02060172